sensor_id;sensor_type;location;lat;lon;timestamp;P1;durP1;ratioP1;P2;durP2;ratioP2
68089;SDS011;54880;50.986;6.990;2022-12-29T00:02:02;5.93;;;1.77;;
68089;SDS011;54880;50.986;6.990;2022-12-29T00:04:27;6.40;;;2.00;;
68089;SDS011;54880;50.986;6.990;2022-12-29T00:06:52;6.63;;;1.53;;
68089;SDS011;54880;50.986;6.990;2022-12-29T00:09:18;4.60;;;1.47;;
68089;SDS011;54880;50.986;6.990;2022-12-29T00:11:43;5.15;;;1.60;;
68089;SDS011;54880;50.986;6.990;2022-12-29T00:14:09;5.05;;;1.30;;
68089;SDS011;54880;50.986;6.990;2022-12-29T00:16:54;5.83;;;1.27;;
68089;SDS011;54880;50.986;6.990;2022-12-29T00:19:19;4.17;;;1.20;;
68089;SDS011;54880;50.986;6.990;2022-12-29T00:22:04;3.90;;;1.00;;
68089;SDS011;54880;50.986;6.990;2022-12-29T00:24:48;5.05;;;1.20;;
68089;SDS011;54880;50.986;6.990;2022-12-29T00:27:32;4.55;;;1.20;;
68089;SDS011;54880;50.986;6.990;2022-12-29T00:30:20;4.70;;;1.02;;
68089;SDS011;54880;50.986;6.990;2022-12-29T00:35:56;3.30;;;0.80;;
68089;SDS011;54880;50.986;6.990;2022-12-29T00:38:22;4.30;;;1.40;;
68089;SDS011;54880;50.986;6.990;2022-12-29T00:41:06;5.95;;;0.98;;
68089;SDS011;54880;50.986;6.990;2022-12-29T00:43:50;4.60;;;1.05;;
68089;SDS011;54880;50.986;6.990;2022-12-29T00:46:34;4.40;;;1.00;;
68089;SDS011;54880;50.986;6.990;2022-12-29T00:49:00;3.83;;;0.98;;
68089;SDS011;54880;50.986;6.990;2022-12-29T00:51:44;3.60;;;0.93;;
68089;SDS011;54880;50.986;6.990;2022-12-29T00:54:09;3.30;;;0.80;;
68089;SDS011;54880;50.986;6.990;2022-12-29T00:56:34;4.00;;;1.03;;
68089;SDS011;54880;50.986;6.990;2022-12-29T00:59:03;4.53;;;0.90;;
68089;SDS011;54880;50.986;6.990;2022-12-29T01:01:28;3.17;;;0.90;;
68089;SDS011;54880;50.986;6.990;2022-12-29T01:03:55;2.95;;;0.80;;
68089;SDS011;54880;50.986;6.990;2022-12-29T01:06:21;3.50;;;0.87;;
68089;SDS011;54880;50.986;6.990;2022-12-29T01:08:46;4.17;;;0.90;;
68089;SDS011;54880;50.986;6.990;2022-12-29T01:11:12;3.63;;;0.90;;
68089;SDS011;54880;50.986;6.990;2022-12-29T01:13:38;3.30;;;0.80;;
68089;SDS011;54880;50.986;6.990;2022-12-29T01:16:04;4.07;;;0.80;;
68089;SDS011;54880;50.986;6.990;2022-12-29T01:18:30;3.20;;;0.80;;
68089;SDS011;54880;50.986;6.990;2022-12-29T01:21:00;2.38;;;0.68;;
68089;SDS011;54880;50.986;6.990;2022-12-29T01:23:26;3.13;;;0.70;;
68089;SDS011;54880;50.986;6.990;2022-12-29T01:25:52;2.28;;;0.60;;
68089;SDS011;54880;50.986;6.990;2022-12-29T01:28:17;2.80;;;0.70;;
68089;SDS011;54880;50.986;6.990;2022-12-29T01:30:43;2.20;;;0.60;;
68089;SDS011;54880;50.986;6.990;2022-12-29T01:33:08;2.67;;;0.60;;
68089;SDS011;54880;50.986;6.990;2022-12-29T01:35:33;2.97;;;0.70;;
68089;SDS011;54880;50.986;6.990;2022-12-29T01:37:58;2.10;;;0.60;;
68089;SDS011;54880;50.986;6.990;2022-12-29T01:40:24;2.43;;;0.70;;
68089;SDS011;54880;50.986;6.990;2022-12-29T01:42:49;2.93;;;0.70;;
68089;SDS011;54880;50.986;6.990;2022-12-29T01:45:16;2.87;;;0.60;;
68089;SDS011;54880;50.986;6.990;2022-12-29T01:47:43;2.28;;;0.60;;
68089;SDS011;54880;50.986;6.990;2022-12-29T01:50:14;2.67;;;0.65;;
68089;SDS011;54880;50.986;6.990;2022-12-29T01:52:51;2.83;;;0.60;;
68089;SDS011;54880;50.986;6.990;2022-12-29T01:55:19;2.83;;;0.60;;
68089;SDS011;54880;50.986;6.990;2022-12-29T01:57:45;2.47;;;0.68;;
68089;SDS011;54880;50.986;6.990;2022-12-29T02:00:13;3.72;;;0.77;;
68089;SDS011;54880;50.986;6.990;2022-12-29T02:02:40;3.20;;;0.80;;
68089;SDS011;54880;50.986;6.990;2022-12-29T02:05:13;3.07;;;0.70;;
68089;SDS011;54880;50.986;6.990;2022-12-29T02:07:39;3.65;;;0.70;;
68089;SDS011;54880;50.986;6.990;2022-12-29T02:10:05;3.78;;;0.90;;
68089;SDS011;54880;50.986;6.990;2022-12-29T02:12:31;3.70;;;0.70;;
68089;SDS011;54880;50.986;6.990;2022-12-29T02:14:57;2.90;;;0.70;;
68089;SDS011;54880;50.986;6.990;2022-12-29T02:20:26;4.82;;;0.77;;
68089;SDS011;54880;50.986;6.990;2022-12-29T02:25:45;3.55;;;0.70;;
68089;SDS011;54880;50.986;6.990;2022-12-29T02:31:09;5.40;;;0.70;;
68089;SDS011;54880;50.986;6.990;2022-12-29T02:39:05;3.78;;;0.77;;
68089;SDS011;54880;50.986;6.990;2022-12-29T02:44:17;3.30;;;0.75;;
68089;SDS011;54880;50.986;6.990;2022-12-29T02:52:02;4.82;;;1.00;;
68089;SDS011;54880;50.986;6.990;2022-12-29T02:54:28;5.07;;;1.00;;
68089;SDS011;54880;50.986;6.990;2022-12-29T02:57:29;3.13;;;0.82;;
68089;SDS011;54880;50.986;6.990;2022-12-29T02:59:53;3.50;;;0.80;;
68089;SDS011;54880;50.986;6.990;2022-12-29T03:02:24;4.13;;;0.77;;
68089;SDS011;54880;50.986;6.990;2022-12-29T03:05:03;3.47;;;0.70;;
68089;SDS011;54880;50.986;6.990;2022-12-29T03:10:21;2.75;;;0.70;;
68089;SDS011;54880;50.986;6.990;2022-12-29T03:13:33;4.72;;;0.95;;
68089;SDS011;54880;50.986;6.990;2022-12-29T03:16:04;2.87;;;0.70;;
68089;SDS011;54880;50.986;6.990;2022-12-29T03:21:08;3.53;;;0.60;;
68089;SDS011;54880;50.986;6.990;2022-12-29T03:23:35;4.22;;;0.80;;
68089;SDS011;54880;50.986;6.990;2022-12-29T03:26:03;2.90;;;0.80;;
68089;SDS011;54880;50.986;6.990;2022-12-29T03:28:32;2.83;;;0.60;;
68089;SDS011;54880;50.986;6.990;2022-12-29T03:31:00;3.75;;;0.90;;
68089;SDS011;54880;50.986;6.990;2022-12-29T03:33:28;2.95;;;0.80;;
68089;SDS011;54880;50.986;6.990;2022-12-29T03:35:58;2.60;;;0.70;;
68089;SDS011;54880;50.986;6.990;2022-12-29T03:38:34;3.13;;;0.70;;
68089;SDS011;54880;50.986;6.990;2022-12-29T03:41:01;2.80;;;0.70;;
68089;SDS011;54880;50.986;6.990;2022-12-29T03:43:29;3.17;;;0.80;;
68089;SDS011;54880;50.986;6.990;2022-12-29T03:45:55;3.80;;;0.90;;
68089;SDS011;54880;50.986;6.990;2022-12-29T03:48:21;3.15;;;0.80;;
68089;SDS011;54880;50.986;6.990;2022-12-29T03:50:48;3.97;;;0.70;;
68089;SDS011;54880;50.986;6.990;2022-12-29T03:53:14;2.33;;;0.50;;
68089;SDS011;54880;50.986;6.990;2022-12-29T03:55:40;2.95;;;0.55;;
68089;SDS011;54880;50.986;6.990;2022-12-29T03:58:06;2.90;;;0.70;;
68089;SDS011;54880;50.986;6.990;2022-12-29T04:00:46;3.42;;;0.82;;
68089;SDS011;54880;50.986;6.990;2022-12-29T04:03:12;4.40;;;0.90;;
68089;SDS011;54880;50.986;6.990;2022-12-29T04:05:40;4.77;;;0.97;;
68089;SDS011;54880;50.986;6.990;2022-12-29T04:08:05;3.55;;;0.60;;
68089;SDS011;54880;50.986;6.990;2022-12-29T04:10:31;3.70;;;1.10;;
68089;SDS011;54880;50.986;6.990;2022-12-29T04:12:59;2.90;;;0.70;;
68089;SDS011;54880;50.986;6.990;2022-12-29T04:15:25;2.50;;;0.68;;
68089;SDS011;54880;50.986;6.990;2022-12-29T04:17:51;3.10;;;0.90;;
68089;SDS011;54880;50.986;6.990;2022-12-29T04:20:17;3.53;;;0.95;;
68089;SDS011;54880;50.986;6.990;2022-12-29T04:23:04;3.70;;;1.00;;
68089;SDS011;54880;50.986;6.990;2022-12-29T04:25:31;3.53;;;0.88;;
68089;SDS011;54880;50.986;6.990;2022-12-29T04:27:58;4.20;;;1.00;;
68089;SDS011;54880;50.986;6.990;2022-12-29T04:30:46;4.15;;;0.95;;
68089;SDS011;54880;50.986;6.990;2022-12-29T04:33:23;3.47;;;1.00;;
68089;SDS011;54880;50.986;6.990;2022-12-29T04:35:49;3.20;;;0.90;;
68089;SDS011;54880;50.986;6.990;2022-12-29T04:38:15;3.63;;;0.90;;
68089;SDS011;54880;50.986;6.990;2022-12-29T04:40:41;4.30;;;0.80;;
68089;SDS011;54880;50.986;6.990;2022-12-29T04:43:07;2.90;;;0.90;;
68089;SDS011;54880;50.986;6.990;2022-12-29T04:45:49;3.60;;;0.70;;
68089;SDS011;54880;50.986;6.990;2022-12-29T04:48:24;4.57;;;1.00;;
68089;SDS011;54880;50.986;6.990;2022-12-29T04:51:16;3.58;;;0.90;;
68089;SDS011;54880;50.986;6.990;2022-12-29T04:53:42;4.10;;;0.90;;
68089;SDS011;54880;50.986;6.990;2022-12-29T04:56:07;5.43;;;0.83;;
68089;SDS011;54880;50.986;6.990;2022-12-29T04:58:33;3.33;;;0.85;;
68089;SDS011;54880;50.986;6.990;2022-12-29T05:00:59;3.07;;;0.80;;
68089;SDS011;54880;50.986;6.990;2022-12-29T05:03:28;3.33;;;0.60;;
68089;SDS011;54880;50.986;6.990;2022-12-29T05:05:54;4.53;;;0.80;;
68089;SDS011;54880;50.986;6.990;2022-12-29T05:08:20;5.35;;;0.90;;
68089;SDS011;54880;50.986;6.990;2022-12-29T05:10:45;3.07;;;0.80;;
68089;SDS011;54880;50.986;6.990;2022-12-29T05:13:11;5.13;;;0.98;;
68089;SDS011;54880;50.986;6.990;2022-12-29T05:15:38;3.83;;;0.80;;
68089;SDS011;54880;50.986;6.990;2022-12-29T05:18:03;3.67;;;0.90;;
68089;SDS011;54880;50.986;6.990;2022-12-29T05:20:29;5.13;;;0.80;;
68089;SDS011;54880;50.986;6.990;2022-12-29T05:22:56;3.67;;;0.60;;
68089;SDS011;54880;50.986;6.990;2022-12-29T05:25:22;4.75;;;0.82;;
68089;SDS011;54880;50.986;6.990;2022-12-29T05:27:54;3.92;;;0.80;;
68089;SDS011;54880;50.986;6.990;2022-12-29T05:30:39;3.70;;;0.90;;
68089;SDS011;54880;50.986;6.990;2022-12-29T05:33:05;3.65;;;0.70;;
68089;SDS011;54880;50.986;6.990;2022-12-29T05:35:32;4.93;;;0.90;;
68089;SDS011;54880;50.986;6.990;2022-12-29T05:37:58;4.28;;;0.80;;
68089;SDS011;54880;50.986;6.990;2022-12-29T05:40:24;3.93;;;0.80;;
68089;SDS011;54880;50.986;6.990;2022-12-29T05:42:54;3.72;;;0.82;;
68089;SDS011;54880;50.986;6.990;2022-12-29T05:45:44;5.20;;;0.90;;
68089;SDS011;54880;50.986;6.990;2022-12-29T05:48:32;4.00;;;0.70;;
68089;SDS011;54880;50.986;6.990;2022-12-29T05:51:13;3.35;;;0.70;;
68089;SDS011;54880;50.986;6.990;2022-12-29T05:53:45;5.22;;;0.90;;
68089;SDS011;54880;50.986;6.990;2022-12-29T05:56:10;3.63;;;0.80;;
68089;SDS011;54880;50.986;6.990;2022-12-29T05:58:36;3.83;;;0.80;;
68089;SDS011;54880;50.986;6.990;2022-12-29T06:01:02;3.40;;;0.70;;
68089;SDS011;54880;50.986;6.990;2022-12-29T06:03:27;4.47;;;0.90;;
68089;SDS011;54880;50.986;6.990;2022-12-29T06:05:52;2.90;;;0.80;;
68089;SDS011;54880;50.986;6.990;2022-12-29T06:08:18;2.80;;;0.80;;
68089;SDS011;54880;50.986;6.990;2022-12-29T06:10:43;4.63;;;0.70;;
68089;SDS011;54880;50.986;6.990;2022-12-29T06:13:08;4.13;;;0.80;;
68089;SDS011;54880;50.986;6.990;2022-12-29T06:15:36;4.13;;;0.95;;
68089;SDS011;54880;50.986;6.990;2022-12-29T06:18:04;2.53;;;0.70;;
68089;SDS011;54880;50.986;6.990;2022-12-29T06:20:29;3.80;;;0.80;;
68089;SDS011;54880;50.986;6.990;2022-12-29T06:22:55;3.40;;;0.70;;
68089;SDS011;54880;50.986;6.990;2022-12-29T06:25:21;3.15;;;0.80;;
68089;SDS011;54880;50.986;6.990;2022-12-29T06:27:47;5.23;;;0.80;;
68089;SDS011;54880;50.986;6.990;2022-12-29T06:30:12;2.47;;;0.60;;
68089;SDS011;54880;50.986;6.990;2022-12-29T06:32:39;5.38;;;0.93;;
68089;SDS011;54880;50.986;6.990;2022-12-29T06:35:07;2.95;;;0.70;;
68089;SDS011;54880;50.986;6.990;2022-12-29T06:37:37;3.40;;;0.70;;
68089;SDS011;54880;50.986;6.990;2022-12-29T06:40:03;4.13;;;1.00;;
68089;SDS011;54880;50.986;6.990;2022-12-29T06:42:38;6.10;;;1.17;;
68089;SDS011;54880;50.986;6.990;2022-12-29T06:45:11;3.42;;;0.88;;
68089;SDS011;54880;50.986;6.990;2022-12-29T06:47:37;4.47;;;0.80;;
68089;SDS011;54880;50.986;6.990;2022-12-29T06:50:02;5.30;;;1.00;;
68089;SDS011;54880;50.986;6.990;2022-12-29T06:52:27;3.67;;;0.73;;
68089;SDS011;54880;50.986;6.990;2022-12-29T06:54:53;2.75;;;0.70;;
68089;SDS011;54880;50.986;6.990;2022-12-29T06:57:18;5.20;;;0.90;;
68089;SDS011;54880;50.986;6.990;2022-12-29T06:59:44;4.63;;;0.90;;
68089;SDS011;54880;50.986;6.990;2022-12-29T07:02:10;5.20;;;0.80;;
68089;SDS011;54880;50.986;6.990;2022-12-29T07:04:35;3.13;;;0.80;;
68089;SDS011;54880;50.986;6.990;2022-12-29T07:07:00;3.33;;;0.63;;
68089;SDS011;54880;50.986;6.990;2022-12-29T07:09:26;4.37;;;0.70;;
68089;SDS011;54880;50.986;6.990;2022-12-29T07:11:51;3.47;;;0.80;;
68089;SDS011;54880;50.986;6.990;2022-12-29T07:14:16;3.13;;;0.80;;
68089;SDS011;54880;50.986;6.990;2022-12-29T07:16:41;3.50;;;0.70;;
68089;SDS011;54880;50.986;6.990;2022-12-29T07:19:07;4.13;;;0.90;;
68089;SDS011;54880;50.986;6.990;2022-12-29T07:21:32;3.10;;;0.80;;
68089;SDS011;54880;50.986;6.990;2022-12-29T07:23:57;3.90;;;0.90;;
68089;SDS011;54880;50.986;6.990;2022-12-29T07:26:22;4.37;;;0.90;;
68089;SDS011;54880;50.986;6.990;2022-12-29T07:28:47;3.20;;;0.87;;
68089;SDS011;54880;50.986;6.990;2022-12-29T07:31:13;7.03;;;1.00;;
68089;SDS011;54880;50.986;6.990;2022-12-29T07:33:39;4.35;;;0.60;;
68089;SDS011;54880;50.986;6.990;2022-12-29T07:36:04;7.47;;;1.00;;
68089;SDS011;54880;50.986;6.990;2022-12-29T07:38:30;3.87;;;0.90;;
68089;SDS011;54880;50.986;6.990;2022-12-29T07:40:58;5.13;;;0.90;;
68089;SDS011;54880;50.986;6.990;2022-12-29T07:43:24;6.35;;;1.40;;
68089;SDS011;54880;50.986;6.990;2022-12-29T07:46:09;5.65;;;1.10;;
68089;SDS011;54880;50.986;6.990;2022-12-29T07:48:34;3.87;;;0.70;;
68089;SDS011;54880;50.986;6.990;2022-12-29T07:51:00;3.35;;;0.70;;
68089;SDS011;54880;50.986;6.990;2022-12-29T07:53:26;6.83;;;1.10;;
68089;SDS011;54880;50.986;6.990;2022-12-29T07:55:51;5.27;;;1.00;;
68089;SDS011;54880;50.986;6.990;2022-12-29T07:58:16;4.20;;;0.90;;
68089;SDS011;54880;50.986;6.990;2022-12-29T08:00:41;5.20;;;1.00;;
68089;SDS011;54880;50.986;6.990;2022-12-29T08:03:07;3.60;;;0.87;;
68089;SDS011;54880;50.986;6.990;2022-12-29T08:05:32;4.50;;;0.80;;
68089;SDS011;54880;50.986;6.990;2022-12-29T08:07:58;6.03;;;1.10;;
68089;SDS011;54880;50.986;6.990;2022-12-29T08:10:23;4.60;;;0.70;;
68089;SDS011;54880;50.986;6.990;2022-12-29T08:12:49;4.38;;;0.93;;
68089;SDS011;54880;50.986;6.990;2022-12-29T08:15:14;6.20;;;1.00;;
68089;SDS011;54880;50.986;6.990;2022-12-29T08:17:39;6.03;;;0.90;;
68089;SDS011;54880;50.986;6.990;2022-12-29T08:20:05;5.57;;;1.23;;
68089;SDS011;54880;50.986;6.990;2022-12-29T08:22:30;5.23;;;0.80;;
68089;SDS011;54880;50.986;6.990;2022-12-29T08:24:55;4.53;;;0.90;;
68089;SDS011;54880;50.986;6.990;2022-12-29T08:27:21;5.53;;;1.40;;
68089;SDS011;54880;50.986;6.990;2022-12-29T08:29:46;8.13;;;1.00;;
68089;SDS011;54880;50.986;6.990;2022-12-29T08:32:12;7.13;;;1.23;;
68089;SDS011;54880;50.986;6.990;2022-12-29T08:34:37;8.30;;;1.10;;
68089;SDS011;54880;50.986;6.990;2022-12-29T08:37:02;6.47;;;1.10;;
68089;SDS011;54880;50.986;6.990;2022-12-29T08:39:28;5.30;;;1.20;;
68089;SDS011;54880;50.986;6.990;2022-12-29T08:41:53;4.73;;;0.80;;
68089;SDS011;54880;50.986;6.990;2022-12-29T08:44:19;6.55;;;1.00;;
68089;SDS011;54880;50.986;6.990;2022-12-29T08:46:44;7.17;;;0.90;;
68089;SDS011;54880;50.986;6.990;2022-12-29T08:49:09;6.17;;;1.10;;
68089;SDS011;54880;50.986;6.990;2022-12-29T08:51:37;6.03;;;1.00;;
68089;SDS011;54880;50.986;6.990;2022-12-29T08:54:03;10.07;;;1.13;;
68089;SDS011;54880;50.986;6.990;2022-12-29T08:56:28;5.95;;;0.90;;
68089;SDS011;54880;50.986;6.990;2022-12-29T08:58:56;5.07;;;1.00;;
68089;SDS011;54880;50.986;6.990;2022-12-29T09:01:22;5.80;;;1.10;;
68089;SDS011;54880;50.986;6.990;2022-12-29T09:03:48;7.07;;;0.93;;
68089;SDS011;54880;50.986;6.990;2022-12-29T09:06:14;4.87;;;0.90;;
68089;SDS011;54880;50.986;6.990;2022-12-29T09:08:40;4.68;;;1.00;;
68089;SDS011;54880;50.986;6.990;2022-12-29T09:11:09;5.33;;;0.77;;
68089;SDS011;54880;50.986;6.990;2022-12-29T09:13:34;9.23;;;1.17;;
68089;SDS011;54880;50.986;6.990;2022-12-29T09:16:00;5.07;;;0.93;;
68089;SDS011;54880;50.986;6.990;2022-12-29T09:18:25;5.67;;;0.90;;
68089;SDS011;54880;50.986;6.990;2022-12-29T09:20:55;5.80;;;1.00;;
68089;SDS011;54880;50.986;6.990;2022-12-29T09:23:20;7.30;;;1.00;;
68089;SDS011;54880;50.986;6.990;2022-12-29T09:25:46;4.77;;;0.90;;
68089;SDS011;54880;50.986;6.990;2022-12-29T09:28:12;5.78;;;0.85;;
68089;SDS011;54880;50.986;6.990;2022-12-29T09:30:37;6.73;;;1.10;;
68089;SDS011;54880;50.986;6.990;2022-12-29T09:33:02;7.33;;;1.20;;
68089;SDS011;54880;50.986;6.990;2022-12-29T09:35:28;7.23;;;1.13;;
68089;SDS011;54880;50.986;6.990;2022-12-29T09:37:53;5.00;;;0.90;;
68089;SDS011;54880;50.986;6.990;2022-12-29T09:40:28;7.13;;;1.17;;
68089;SDS011;54880;50.986;6.990;2022-12-29T09:45:43;6.30;;;1.23;;
68089;SDS011;54880;50.986;6.990;2022-12-29T09:48:27;8.23;;;1.10;;
68089;SDS011;54880;50.986;6.990;2022-12-29T09:50:59;8.60;;;1.10;;
68089;SDS011;54880;50.986;6.990;2022-12-29T09:55:54;6.72;;;1.20;;
68089;SDS011;54880;50.986;6.990;2022-12-29T10:00:54;6.93;;;1.30;;
68089;SDS011;54880;50.986;6.990;2022-12-29T10:03:22;8.50;;;1.27;;
68089;SDS011;54880;50.986;6.990;2022-12-29T10:09:06;8.90;;;1.23;;
68089;SDS011;54880;50.986;6.990;2022-12-29T10:14:32;5.68;;;1.00;;
68089;SDS011;54880;50.986;6.990;2022-12-29T10:17:24;6.18;;;0.98;;
68089;SDS011;54880;50.986;6.990;2022-12-29T10:23:05;9.27;;;1.00;;
68089;SDS011;54880;50.986;6.990;2022-12-29T10:25:28;9.13;;;1.33;;
68089;SDS011;54880;50.986;6.990;2022-12-29T10:27:56;11.27;;;1.35;;
68089;SDS011;54880;50.986;6.990;2022-12-29T10:30:23;8.55;;;1.17;;
68089;SDS011;54880;50.986;6.990;2022-12-29T10:32:50;6.57;;;1.20;;
68089;SDS011;54880;50.986;6.990;2022-12-29T10:35:24;10.38;;;1.20;;
68089;SDS011;54880;50.986;6.990;2022-12-29T10:40:36;10.27;;;1.20;;
68089;SDS011;54880;50.986;6.990;2022-12-29T10:43:03;11.50;;;1.50;;
68089;SDS011;54880;50.986;6.990;2022-12-29T10:45:31;7.10;;;1.00;;
68089;SDS011;54880;50.986;6.990;2022-12-29T10:48:03;5.95;;;0.98;;
68089;SDS011;54880;50.986;6.990;2022-12-29T10:50:29;6.53;;;1.08;;
68089;SDS011;54880;50.986;6.990;2022-12-29T10:52:55;7.83;;;1.70;;
68089;SDS011;54880;50.986;6.990;2022-12-29T10:55:24;6.70;;;0.90;;
68089;SDS011;54880;50.986;6.990;2022-12-29T10:57:53;7.45;;;1.15;;
68089;SDS011;54880;50.986;6.990;2022-12-29T11:00:20;8.55;;;0.98;;
68089;SDS011;54880;50.986;6.990;2022-12-29T11:03:05;8.43;;;1.20;;
68089;SDS011;54880;50.986;6.990;2022-12-29T11:05:34;6.43;;;1.25;;
68089;SDS011;54880;50.986;6.990;2022-12-29T11:08:02;5.72;;;1.17;;
68089;SDS011;54880;50.986;6.990;2022-12-29T11:13:00;7.03;;;1.33;;
68089;SDS011;54880;50.986;6.990;2022-12-29T11:15:26;8.97;;;1.50;;
68089;SDS011;54880;50.986;6.990;2022-12-29T11:17:58;5.30;;;1.10;;
68089;SDS011;54880;50.986;6.990;2022-12-29T11:20:28;5.53;;;0.80;;
68089;SDS011;54880;50.986;6.990;2022-12-29T11:22:54;8.40;;;1.00;;
68089;SDS011;54880;50.986;6.990;2022-12-29T11:25:19;7.90;;;1.20;;
68089;SDS011;54880;50.986;6.990;2022-12-29T11:30:42;7.25;;;1.02;;
68089;SDS011;54880;50.986;6.990;2022-12-29T11:33:08;6.00;;;0.98;;
68089;SDS011;54880;50.986;6.990;2022-12-29T11:35:38;6.53;;;1.10;;
68089;SDS011;54880;50.986;6.990;2022-12-29T11:38:05;7.63;;;1.25;;
68089;SDS011;54880;50.986;6.990;2022-12-29T11:40:31;7.78;;;1.00;;
68089;SDS011;54880;50.986;6.990;2022-12-29T11:43:01;6.93;;;1.20;;
68089;SDS011;54880;50.986;6.990;2022-12-29T11:45:31;5.82;;;1.27;;
68089;SDS011;54880;50.986;6.990;2022-12-29T11:48:05;7.38;;;1.35;;
68089;SDS011;54880;50.986;6.990;2022-12-29T11:50:31;10.55;;;1.10;;
68089;SDS011;54880;50.986;6.990;2022-12-29T11:53:01;7.72;;;1.15;;
68089;SDS011;54880;50.986;6.990;2022-12-29T11:55:28;8.83;;;1.17;;
68089;SDS011;54880;50.986;6.990;2022-12-29T11:57:54;13.23;;;1.33;;
68089;SDS011;54880;50.986;6.990;2022-12-29T12:00:21;6.60;;;1.20;;
68089;SDS011;54880;50.986;6.990;2022-12-29T12:02:53;7.33;;;1.30;;
68089;SDS011;54880;50.986;6.990;2022-12-29T12:08:11;7.18;;;1.10;;
68089;SDS011;54880;50.986;6.990;2022-12-29T12:10:41;8.05;;;1.10;;
68089;SDS011;54880;50.986;6.990;2022-12-29T12:15:52;6.33;;;1.00;;
68089;SDS011;54880;50.986;6.990;2022-12-29T12:18:34;7.05;;;1.10;;
68089;SDS011;54880;50.986;6.990;2022-12-29T12:26:10;7.22;;;1.00;;
68089;SDS011;54880;50.986;6.990;2022-12-29T12:31:13;6.00;;;1.20;;
68089;SDS011;54880;50.986;6.990;2022-12-29T12:33:44;9.50;;;1.45;;
68089;SDS011;54880;50.986;6.990;2022-12-29T12:36:18;6.60;;;1.40;;
68089;SDS011;54880;50.986;6.990;2022-12-29T12:39:31;14.23;;;1.85;;
68089;SDS011;54880;50.986;6.990;2022-12-29T12:44:18;7.10;;;1.20;;
68089;SDS011;54880;50.986;6.990;2022-12-29T12:51:59;9.93;;;1.45;;
68089;SDS011;54880;50.986;6.990;2022-12-29T12:59:50;8.27;;;1.27;;
68089;SDS011;54880;50.986;6.990;2022-12-29T13:02:20;6.45;;;1.23;;
68089;SDS011;54880;50.986;6.990;2022-12-29T13:05:10;8.02;;;1.20;;
68089;SDS011;54880;50.986;6.990;2022-12-29T13:07:59;10.75;;;1.60;;
68089;SDS011;54880;50.986;6.990;2022-12-29T13:10:31;10.13;;;1.60;;
68089;SDS011;54880;50.986;6.990;2022-12-29T13:13:09;6.90;;;1.15;;
68089;SDS011;54880;50.986;6.990;2022-12-29T13:18:10;7.30;;;1.67;;
68089;SDS011;54880;50.986;6.990;2022-12-29T13:26:01;7.00;;;1.10;;
68089;SDS011;54880;50.986;6.990;2022-12-29T13:28:37;8.18;;;1.30;;
68089;SDS011;54880;50.986;6.990;2022-12-29T13:31:24;10.32;;;1.50;;
68089;SDS011;54880;50.986;6.990;2022-12-29T13:33:58;6.22;;;1.17;;
68089;SDS011;54880;50.986;6.990;2022-12-29T13:39:04;11.60;;;1.37;;
68089;SDS011;54880;50.986;6.990;2022-12-29T13:41:31;8.95;;;1.50;;
68089;SDS011;54880;50.986;6.990;2022-12-29T13:43:57;8.00;;;1.63;;
68089;SDS011;54880;50.986;6.990;2022-12-29T13:46:31;7.55;;;1.30;;
68089;SDS011;54880;50.986;6.990;2022-12-29T13:49:01;9.15;;;1.40;;
68089;SDS011;54880;50.986;6.990;2022-12-29T13:51:27;8.47;;;0.97;;
68089;SDS011;54880;50.986;6.990;2022-12-29T13:56:47;8.02;;;1.45;;
68089;SDS011;54880;50.986;6.990;2022-12-29T13:59:17;8.65;;;1.60;;
68089;SDS011;54880;50.986;6.990;2022-12-29T14:02:02;8.67;;;1.30;;
68089;SDS011;54880;50.986;6.990;2022-12-29T14:04:29;9.32;;;1.70;;
68089;SDS011;54880;50.986;6.990;2022-12-29T14:07:02;8.43;;;1.30;;
68089;SDS011;54880;50.986;6.990;2022-12-29T14:12:05;6.50;;;0.90;;
68089;SDS011;54880;50.986;6.990;2022-12-29T14:14:43;9.30;;;1.20;;
68089;SDS011;54880;50.986;6.990;2022-12-29T14:17:11;6.97;;;1.25;;
68089;SDS011;54880;50.986;6.990;2022-12-29T14:19:39;7.47;;;1.30;;
68089;SDS011;54880;50.986;6.990;2022-12-29T14:22:06;8.35;;;1.58;;
68089;SDS011;54880;50.986;6.990;2022-12-29T14:26:58;10.80;;;1.53;;
68089;SDS011;54880;50.986;6.990;2022-12-29T14:31:48;8.37;;;1.23;;
68089;SDS011;54880;50.986;6.990;2022-12-29T14:36:52;6.17;;;1.53;;
68089;SDS011;54880;50.986;6.990;2022-12-29T14:41:49;7.43;;;1.35;;
68089;SDS011;54880;50.986;6.990;2022-12-29T14:44:24;9.63;;;1.38;;
68089;SDS011;54880;50.986;6.990;2022-12-29T14:46:57;8.40;;;1.30;;
68089;SDS011;54880;50.986;6.990;2022-12-29T14:49:24;6.13;;;1.50;;
68089;SDS011;54880;50.986;6.990;2022-12-29T14:51:53;9.68;;;1.55;;
68089;SDS011;54880;50.986;6.990;2022-12-29T14:57:04;7.00;;;1.10;;
68089;SDS011;54880;50.986;6.990;2022-12-29T14:59:31;5.72;;;1.30;;
68089;SDS011;54880;50.986;6.990;2022-12-29T15:01:58;8.13;;;1.40;;
68089;SDS011;54880;50.986;6.990;2022-12-29T15:04:25;8.07;;;1.63;;
68089;SDS011;54880;50.986;6.990;2022-12-29T15:06:52;6.57;;;1.40;;
68089;SDS011;54880;50.986;6.990;2022-12-29T15:11:50;7.97;;;1.23;;
68089;SDS011;54880;50.986;6.990;2022-12-29T15:14:37;8.65;;;1.23;;
68089;SDS011;54880;50.986;6.990;2022-12-29T15:17:10;9.10;;;1.20;;
68089;SDS011;54880;50.986;6.990;2022-12-29T15:19:36;6.63;;;1.17;;
68089;SDS011;54880;50.986;6.990;2022-12-29T15:22:01;5.70;;;1.20;;
68089;SDS011;54880;50.986;6.990;2022-12-29T15:24:27;8.87;;;1.30;;
68089;SDS011;54880;50.986;6.990;2022-12-29T15:26:53;8.55;;;1.48;;
68089;SDS011;54880;50.986;6.990;2022-12-29T15:29:30;9.95;;;1.65;;
68089;SDS011;54880;50.986;6.990;2022-12-29T15:31:56;8.48;;;1.25;;
68089;SDS011;54880;50.986;6.990;2022-12-29T15:34:22;15.87;;;6.20;;
68089;SDS011;54880;50.986;6.990;2022-12-29T15:36:49;10.67;;;3.70;;
68089;SDS011;54880;50.986;6.990;2022-12-29T15:39:27;12.80;;;3.88;;
68089;SDS011;54880;50.986;6.990;2022-12-29T15:41:57;18.30;;;8.15;;
68089;SDS011;54880;50.986;6.990;2022-12-29T15:44:37;16.60;;;6.25;;
68089;SDS011;54880;50.986;6.990;2022-12-29T15:47:04;19.65;;;7.05;;
68089;SDS011;54880;50.986;6.990;2022-12-29T15:49:30;19.33;;;6.03;;
68089;SDS011;54880;50.986;6.990;2022-12-29T15:51:55;17.88;;;5.82;;
68089;SDS011;54880;50.986;6.990;2022-12-29T15:54:21;22.10;;;6.40;;
68089;SDS011;54880;50.986;6.990;2022-12-29T15:56:48;12.10;;;4.03;;
68089;SDS011;54880;50.986;6.990;2022-12-29T16:01:49;14.57;;;6.45;;
68089;SDS011;54880;50.986;6.990;2022-12-29T16:04:14;16.57;;;4.63;;
68089;SDS011;54880;50.986;6.990;2022-12-29T16:06:44;11.98;;;3.65;;
68089;SDS011;54880;50.986;6.990;2022-12-29T16:11:38;12.23;;;4.07;;
68089;SDS011;54880;50.986;6.990;2022-12-29T16:14:09;15.50;;;5.23;;
68089;SDS011;54880;50.986;6.990;2022-12-29T16:16:39;22.27;;;7.70;;
68089;SDS011;54880;50.986;6.990;2022-12-29T16:19:13;16.17;;;5.40;;
68089;SDS011;54880;50.986;6.990;2022-12-29T16:21:38;14.07;;;4.88;;
68089;SDS011;54880;50.986;6.990;2022-12-29T16:24:05;14.93;;;5.10;;
68089;SDS011;54880;50.986;6.990;2022-12-29T16:26:31;11.80;;;3.80;;
68089;SDS011;54880;50.986;6.990;2022-12-29T16:28:57;11.63;;;2.83;;
68089;SDS011;54880;50.986;6.990;2022-12-29T16:33:58;15.55;;;4.78;;
68089;SDS011;54880;50.986;6.990;2022-12-29T16:38:49;11.53;;;3.17;;
68089;SDS011;54880;50.986;6.990;2022-12-29T16:41:30;27.90;;;14.73;;
68089;SDS011;54880;50.986;6.990;2022-12-29T16:44:11;12.05;;;5.50;;
68089;SDS011;54880;50.986;6.990;2022-12-29T16:46:38;18.80;;;2.97;;
68089;SDS011;54880;50.986;6.990;2022-12-29T16:49:12;12.10;;;2.43;;
68089;SDS011;54880;50.986;6.990;2022-12-29T16:51:38;13.55;;;3.97;;
68089;SDS011;54880;50.986;6.990;2022-12-29T16:54:05;12.77;;;2.90;;
68089;SDS011;54880;50.986;6.990;2022-12-29T16:56:31;11.77;;;2.73;;
68089;SDS011;54880;50.986;6.990;2022-12-29T17:01:29;14.07;;;5.00;;
68089;SDS011;54880;50.986;6.990;2022-12-29T17:03:57;12.67;;;3.90;;